Time;durP1;ratioP1;P1;durP2;ratioP2;P2;SDS_P1;SDS_P2;PMS_P1;PMS_P2;Temp;Humidity;BMP_temperature;BMP_pressure;BME280_temperature;BME280_humidity;BME280_pressure;Samples;Min_cycle;Max_cycle;Signal;HPM_P1;HPM_P2
2022/05/08 00:00:59;;;;;;;12.07;7.53;;;;;;;11.48;100.00;97240.44;5067364;28;20042;-72
2022/05/08 00:03:25;;;;;;;15.35;8.50;;;;;;;11.48;100.00;97235.09;5068020;28;20040;-73
2022/05/08 00:05:51;;;;;;;13.40;7.63;;;;;;;11.39;100.00;97235.44;5069793;28;20504;-72
2022/05/08 00:08:17;;;;;;;10.48;7.22;;;;;;;11.39;100.00;97231.97;5067281;28;20074;-73
2022/05/08 00:10:43;;;;;;;11.32;7.30;;;;;;;11.33;100.00;97231.03;5069671;28;20516;-73
2022/05/08 00:13:11;;;;;;;12.25;7.40;;;;;;;11.21;100.00;97234.78;5066071;28;20143;-73
2022/05/08 00:15:37;;;;;;;13.98;7.32;;;;;;;11.16;100.00;97222.88;5068930;28;20037;-73
2022/05/08 00:18:04;;;;;;;11.38;7.70;;;;;;;11.02;100.00;97229.50;5068614;28;20063;-72
2022/05/08 00:20:29;;;;;;;14.65;8.07;;;;;;;10.95;100.00;97223.44;5068890;28;20059;-72
2022/05/08 00:22:55;;;;;;;11.00;7.72;;;;;;;10.98;100.00;97228.34;5068748;28;20049;-72
2022/05/08 00:25:20;;;;;;;12.23;7.60;;;;;;;10.84;100.00;97221.59;5069384;28;20068;-71
2022/05/08 00:27:46;;;;;;;12.98;7.65;;;;;;;10.88;100.00;97220.06;5069597;28;20040;-71
2022/05/08 00:30:12;;;;;;;15.15;7.75;;;;;;;10.94;100.00;97221.81;5067647;28;20437;-72
2022/05/08 00:32:38;;;;;;;15.80;7.82;;;;;;;10.96;100.00;97216.22;5067759;28;20086;-72
2022/05/08 00:35:03;;;;;;;15.30;7.93;;;;;;;11.01;100.00;97219.03;5065608;28;20040;-72
2022/05/08 00:37:29;;;;;;;13.52;7.72;;;;;;;10.97;100.00;97220.53;5065659;28;20606;-73
2022/05/08 00:39:54;;;;;;;13.13;7.80;;;;;;;10.87;100.00;97224.59;5069459;28;20522;-71
2022/05/08 00:42:20;;;;;;;11.00;7.57;;;;;;;10.85;100.00;97218.69;5069812;28;20502;-72
2022/05/08 00:44:45;;;;;;;12.50;8.20;;;;;;;10.82;100.00;97218.34;5067056;28;20036;-72
2022/05/08 00:47:11;;;;;;;15.70;7.95;;;;;;;10.73;100.00;97219.69;5065464;28;20040;-71
2022/05/08 00:49:36;;;;;;;12.55;7.68;;;;;;;10.73;100.00;97215.16;5067707;28;20045;-72
2022/05/08 00:52:04;;;;;;;14.52;7.38;;;;;;;10.75;100.00;97220.31;5070394;28;20345;-72
2022/05/08 00:54:30;;;;;;;12.70;7.85;;;;;;;10.57;100.00;97222.00;5069941;28;20848;-72
2022/05/08 00:56:57;;;;;;;12.02;7.75;;;;;;;10.66;100.00;97222.50;5068467;28;20044;-71
2022/05/08 00:59:26;;;;;;;13.07;8.20;;;;;;;10.72;100.00;97224.25;5065128;28;20066;-73
2022/05/08 01:01:52;;;;;;;15.43;8.32;;;;;;;10.42;100.00;97218.13;5067424;28;20051;-73
2022/05/08 01:04:17;;;;;;;15.63;8.30;;;;;;;10.24;100.00;97227.84;5066820;28;20439;-72
2022/05/08 01:06:46;;;;;;;12.55;8.45;;;;;;;10.07;100.00;97226.00;5065461;28;20115;-72
2022/05/08 01:09:11;;;;;;;13.82;9.07;;;;;;;9.98;100.00;97229.00;5066487;28;20039;-72
2022/05/08 01:11:37;;;;;;;14.32;9.48;;;;;;;10.20;100.00;97228.50;5064762;28;20422;-72
2022/05/08 01:14:03;;;;;;;14.15;9.75;;;;;;;10.38;100.00;97230.34;5067961;28;20052;-72
2022/05/08 01:16:29;;;;;;;19.73;9.85;;;;;;;10.52;100.00;97235.28;5066820;28;20391;-72
2022/05/08 01:18:55;;;;;;;14.70;9.15;;;;;;;10.58;100.00;97231.69;5069282;28;20028;-72
2022/05/08 01:21:30;;;;;;;17.30;9.38;;;;;;;10.46;100.00;97222.00;5065322;28;20383;-72
2022/05/08 01:23:55;;;;;;;12.77;9.45;;;;;;;10.40;100.00;97236.28;5067985;28;20113;-71
2022/05/08 01:26:22;;;;;;;14.65;9.13;;;;;;;10.18;100.00;97223.38;5068977;28;20036;-71
2022/05/08 01:28:47;;;;;;;16.05;9.73;;;;;;;10.23;100.00;97225.41;5065621;28;20039;-72
2022/05/08 01:31:13;;;;;;;15.45;9.35;;;;;;;10.23;100.00;97226.22;5070011;28;20056;-72
2022/05/08 01:33:39;;;;;;;12.70;8.85;;;;;;;10.16;100.00;97225.47;5065945;28;20590;-72
2022/05/08 01:36:05;;;;;;;14.10;9.48;;;;;;;10.06;100.00;97227.88;5066413;28;20585;-72
2022/05/08 01:38:30;;;;;;;15.35;8.57;;;;;;;10.08;100.00;97227.63;5064849;28;20041;-71
2022/05/08 01:41:03;;;;;;;12.80;8.43;;;;;;;9.93;100.00;97231.53;5069477;28;20037;-71
2022/05/08 01:43:32;;;;;;;12.23;8.60;;;;;;;9.95;100.00;97228.63;5067015;28;20450;-72
2022/05/08 01:45:58;;;;;;;11.82;8.27;;;;;;;10.01;100.00;97227.72;5067152;28;20127;-72
2022/05/08 01:48:23;;;;;;;12.13;8.30;;;;;;;9.91;100.00;97228.28;5065474;28;20596;-72
2022/05/08 01:50:56;;;;;;;12.25;8.02;;;;;;;9.82;100.00;97226.94;5067271;28;20037;-72
2022/05/08 01:53:33;;;;;;;14.43;8.93;;;;;;;9.74;100.00;97230.75;5065576;28;20511;-73
2022/05/08 01:56:00;;;;;;;13.43;8.32;;;;;;;9.74;100.00;97237.94;5063774;28;20531;-72
2022/05/08 01:58:27;;;;;;;12.85;8.93;;;;;;;9.67;100.00;97234.53;5066456;28;20056;-71
2022/05/08 02:00:54;;;;;;;13.30;8.10;;;;;;;9.64;100.00;97246.47;5067478;28;20052;-74
2022/05/08 02:03:22;;;;;;;17.27;9.50;;;;;;;9.52;100.00;97245.59;5065349;28;20033;-72
2022/05/08 02:05:48;;;;;;;15.10;9.48;;;;;;;9.49;100.00;97248.69;5069961;28;20036;-71
2022/05/08 02:08:15;;;;;;;14.88;8.82;;;;;;;9.52;100.00;97252.78;5063923;28;20075;-71
2022/05/08 02:10:43;;;;;;;16.48;9.80;;;;;;;9.51;100.00;97249.31;5067735;28;20051;-72
2022/05/08 02:13:09;;;;;;;13.25;9.88;;;;;;;9.51;100.00;97249.31;5064599;28;20127;-71
2022/05/08 02:15:35;;;;;;;17.17;9.38;;;;;;;9.59;100.00;97250.88;5065804;28;20147;-71
2022/05/08 02:18:04;;;;;;;14.65;9.52;;;;;;;9.52;100.00;97250.94;5072983;28;20119;-72
2022/05/08 02:20:29;;;;;;;13.77;9.77;;;;;;;9.33;100.00;97243.94;5070058;28;20067;-73
2022/05/08 02:22:56;;;;;;;15.65;9.85;;;;;;;9.41;100.00;97249.78;5067259;28;20044;-73
2022/05/08 02:25:22;;;;;;;16.25;9.98;;;;;;;9.37;100.00;97245.94;5065084;28;20028;-72
2022/05/08 02:27:51;;;;;;;14.02;9.48;;;;;;;9.30;100.00;97241.72;5069260;28;20040;-72
2022/05/08 02:30:22;;;;;;;15.90;9.63;;;;;;;9.31;100.00;97243.34;5062400;28;20032;-72
2022/05/08 02:32:56;;;;;;;14.68;10.02;;;;;;;9.24;100.00;97243.41;5064709;28;20036;-73
2022/05/08 02:35:22;;;;;;;11.43;9.15;;;;;;;9.25;100.00;97252.22;5066398;28;20028;-72
2022/05/08 02:37:50;;;;;;;13.95;9.20;;;;;;;9.15;100.00;97250.88;5071220;28;20403;-73
2022/05/08 02:40:16;;;;;;;14.27;9.75;;;;;;;9.17;100.00;97254.16;5071617;28;20111;-72
2022/05/08 02:42:42;;;;;;;13.55;9.80;;;;;;;9.10;100.00;97250.72;5069036;28;20195;-71
2022/05/08 02:45:09;;;;;;;13.77;9.98;;;;;;;9.14;100.00;97251.13;5066860;28;20161;-72
2022/05/08 02:47:37;;;;;;;18.42;9.88;;;;;;;9.06;100.00;97249.53;5069317;28;20052;-72
2022/05/08 02:50:04;;;;;;;12.98;8.90;;;;;;;8.98;100.00;97249.00;5075815;28;20109;-72
2022/05/08 02:52:30;;;;;;;14.00;9.48;;;;;;;8.98;100.00;97252.50;5071519;28;20025;-71
2022/05/08 02:54:55;;;;;;;13.25;8.85;;;;;;;8.88;100.00;97262.84;5070846;28;20610;-73
2022/05/08 03:00:07;;;;;;;16.23;9.73;;;;;;;8.87;100.00;97261.19;5071176;28;20044;-72
2022/05/08 03:02:33;;;;;;;16.30;9.20;;;;;;;8.94;100.00;97260.09;5055930;28;20090;-72
2022/05/08 03:04:59;;;;;;;12.60;9.18;;;;;;;8.70;100.00;97254.75;5069273;28;20036;-73
2022/05/08 03:07:27;;;;;;;15.02;9.40;;;;;;;8.65;100.00;97263.44;5071352;28;20126;-73
2022/05/08 03:09:52;;;;;;;15.88;9.40;;;;;;;8.69;100.00;97259.28;5068480;28;20118;-73
2022/05/08 03:12:18;;;;;;;12.57;8.63;;;;;;;8.78;100.00;97257.16;5069438;28;20174;-72
2022/05/08 03:14:43;;;;;;;15.95;9.18;;;;;;;8.76;100.00;97261.91;5076233;28;20036;-71
2022/05/08 03:17:09;;;;;;;13.23;8.73;;;;;;;8.78;100.00;97262.50;5068405;28;20042;-72
2022/05/08 03:19:34;;;;;;;14.60;9.07;;;;;;;8.84;100.00;97253.63;5067705;28;20036;-71
2022/05/08 03:21:59;;;;;;;11.05;8.40;;;;;;;8.91;100.00;97267.75;5069982;28;20086;-71
2022/05/08 03:24:28;;;;;;;12.93;8.88;;;;;;;8.90;100.00;97263.44;5067746;28;20037;-71
2022/05/08 03:26:53;;;;;;;12.90;8.60;;;;;;;8.82;100.00;97261.06;5069372;28;20047;-71
2022/05/08 03:29:19;;;;;;;14.27;8.88;;;;;;;8.77;100.00;97269.69;5068616;28;20488;-71
2022/05/08 03:31:44;;;;;;;12.82;9.10;;;;;;;8.60;100.00;97261.41;5067676;28;20406;-71
2022/05/08 03:34:09;;;;;;;14.63;9.07;;;;;;;8.51;100.00;97275.22;5067416;28;20059;-71
2022/05/08 03:36:35;;;;;;;14.32;9.43;;;;;;;8.41;100.00;97267.72;5066171;28;20089;-72
2022/05/08 03:39:00;;;;;;;11.75;7.78;;;;;;;8.31;100.00;97269.97;5066580;28;20075;-73
2022/05/08 03:41:26;;;;;;;13.55;9.13;;;;;;;8.34;100.00;97275.72;5068714;28;20037;-70
2022/05/08 03:43:51;;;;;;;13.77;8.90;;;;;;;8.44;100.00;97267.25;5068066;28;20119;-72
2022/05/08 03:46:17;;;;;;;15.05;9.15;;;;;;;8.57;100.00;97272.53;5069005;28;20064;-71
2022/05/08 03:48:43;;;;;;;13.23;8.57;;;;;;;8.65;100.00;97271.44;5070624;28;20558;-71
2022/05/08 03:51:09;;;;;;;16.55;9.23;;;;;;;8.59;100.00;97278.44;5067150;28;20127;-71
2022/05/08 03:53:36;;;;;;;15.85;9.45;;;;;;;8.53;100.00;97279.31;5069263;28;20052;-71
2022/05/08 03:56:03;;;;;;;11.60;9.25;;;;;;;8.45;100.00;97274.22;5067095;28;20263;-73
2022/05/08 03:58:28;;;;;;;15.00;9.27;;;;;;;8.43;100.00;97284.31;5067680;28;20087;-71
2022/05/08 04:00:54;;;;;;;11.93;8.80;;;;;;;8.37;100.00;97279.81;5066844;28;20066;-73
2022/05/08 04:03:19;;;;;;;14.73;9.90;;;;;;;8.42;100.00;97281.84;5067419;28;20098;-71
2022/05/08 04:05:45;;;;;;;12.70;9.23;;;;;;;8.62;100.00;97279.84;5068751;28;20058;-71
2022/05/08 04:08:10;;;;;;;13.20;8.57;;;;;;;8.66;100.00;97278.41;5065992;28;20651;-72
2022/05/08 04:10:35;;;;;;;13.77;9.90;;;;;;;8.75;100.00;97286.97;5068113;28;20062;-72
2022/05/08 04:13:01;;;;;;;17.33;9.95;;;;;;;8.70;100.00;97282.25;5068828;28;20475;-71
2022/05/08 04:18:11;;;;;;;14.90;9.93;;;;;;;9.13;100.00;97281.53;5066091;28;20032;-71
2022/05/08 04:20:37;;;;;;;15.02;10.07;;;;;;;9.23;100.00;97284.50;5068033;28;20390;-72
2022/05/08 04:25:50;;;;;;;17.75;9.70;;;;;;;9.31;100.00;97291.41;5068108;28;20478;-71
2022/05/08 04:28:16;;;;;;;15.93;10.48;;;;;;;9.42;100.00;97280.84;5068030;28;20105;-71
2022/05/08 04:30:41;;;;;;;17.88;10.32;;;;;;;9.53;100.00;97284.63;5066999;28;20483;-71
2022/05/08 04:33:07;;;;;;;16.58;10.20;;;;;;;9.53;100.00;97283.81;5066657;28;20059;-71
2022/05/08 04:35:32;;;;;;;17.17;9.77;;;;;;;9.67;100.00;97285.31;5068371;28;20036;-72
2022/05/08 04:37:58;;;;;;;19.33;9.70;;;;;;;9.57;100.00;97280.50;5066781;28;20577;-71
2022/05/08 04:40:24;;;;;;;16.98;10.48;;;;;;;9.69;100.00;97281.38;5065956;28;20418;-71
2022/05/08 04:42:49;;;;;;;14.18;9.75;;;;;;;9.79;100.00;97286.19;5068026;28;20498;-71
2022/05/08 04:45:15;;;;;;;14.05;9.73;;;;;;;9.82;100.00;97284.94;5068781;28;20036;-71
2022/05/08 04:47:40;;;;;;;13.82;10.13;;;;;;;9.85;100.00;97290.63;5067200;28;20076;-71
2022/05/08 04:50:06;;;;;;;13.43;9.23;;;;;;;9.85;100.00;97295.19;5066288;28;20040;-71
2022/05/08 04:52:32;;;;;;;14.45;9.38;;;;;;;9.99;100.00;97291.31;5067682;28;20490;-71
2022/05/08 04:54:58;;;;;;;16.52;9.82;;;;;;;10.11;100.00;97294.03;5067145;28;20117;-72
2022/05/08 04:57:23;;;;;;;13.68;10.07;;;;;;;10.21;100.00;97288.97;5068035;28;20028;-71
2022/05/08 04:59:48;;;;;;;17.27;10.02;;;;;;;10.26;100.00;97289.13;5065883;28;20036;-72
2022/05/08 05:02:14;;;;;;;17.23;9.30;;;;;;;10.20;100.00;97290.84;5067022;28;20079;-73
2022/05/08 05:04:40;;;;;;;17.13;10.27;;;;;;;10.12;100.00;97299.19;5068914;28;20211;-72
2022/05/08 05:07:07;;;;;;;18.00;10.77;;;;;;;10.18;100.00;97303.59;5067882;28;20115;-71
2022/05/08 05:09:32;;;;;;;19.67;10.30;;;;;;;10.20;100.00;97296.19;5065513;28;20032;-71
2022/05/08 05:11:58;;;;;;;17.92;10.32;;;;;;;10.16;100.00;97305.69;5067170;28;20540;-71
2022/05/08 05:14:23;;;;;;;17.17;10.40;;;;;;;10.24;100.00;97299.25;5067056;28;20556;-71
2022/05/08 05:16:48;;;;;;;14.10;9.85;;;;;;;10.29;100.00;97316.25;5064343;28;20047;-71
2022/05/08 05:19:14;;;;;;;15.43;9.95;;;;;;;10.39;100.00;97304.19;5066963;28;20364;-72
2022/05/08 05:21:39;;;;;;;18.38;10.38;;;;;;;10.47;100.00;97310.06;5065151;28;20037;-72
2022/05/08 05:24:05;;;;;;;15.95;10.50;;;;;;;10.42;100.00;97299.19;5065633;28;20067;-73
2022/05/08 05:26:30;;;;;;;14.77;10.38;;;;;;;10.56;100.00;97313.22;5067790;28;20064;-72
2022/05/08 05:28:56;;;;;;;16.48;11.20;;;;;;;10.60;100.00;97315.22;5067330;28;20036;-72
2022/05/08 05:31:21;;;;;;;20.63;11.05;;;;;;;10.68;100.00;97311.41;5067177;28;20051;-71
2022/05/08 05:33:47;;;;;;;19.00;11.27;;;;;;;10.75;100.00;97314.00;5067545;28;20106;-71
2022/05/08 05:36:13;;;;;;;16.77;10.23;;;;;;;10.84;100.00;97321.47;5064099;28;20064;-72
2022/05/08 05:38:39;;;;;;;18.42;11.02;;;;;;;10.94;100.00;97328.94;5066322;28;20561;-71
2022/05/08 05:41:04;;;;;;;29.65;11.20;;;;;;;11.03;100.00;97326.75;5067821;28;20032;-71
2022/05/08 05:43:30;;;;;;;17.17;10.70;;;;;;;11.01;100.00;97336.88;5065114;28;20066;-72
2022/05/08 05:48:39;;;;;;;17.42;11.32;;;;;;;11.03;100.00;97324.06;5068023;28;20125;-73
2022/05/08 05:51:05;;;;;;;20.48;10.75;;;;;;;11.18;100.00;97326.28;5066675;28;20045;-73
2022/05/08 05:53:35;;;;;;;17.15;11.10;;;;;;;11.29;100.00;97329.00;5067598;28;20079;-71
2022/05/08 05:56:01;;;;;;;20.02;11.50;;;;;;;11.39;100.00;97328.44;5065445;28;20044;-72
2022/05/08 05:58:27;;;;;;;20.27;11.10;;;;;;;11.46;100.00;97336.34;5066189;28;20071;-71
2022/05/08 06:00:52;;;;;;;18.30;11.43;;;;;;;11.47;100.00;97335.31;5069500;28;20629;-71
2022/05/08 06:03:18;;;;;;;18.70;11.18;;;;;;;11.54;100.00;97338.69;5065007;28;20050;-72
2022/05/08 06:05:44;;;;;;;20.20;12.27;;;;;;;11.48;100.00;97348.47;5068230;28;20032;-71
2022/05/08 06:08:09;;;;;;;21.50;12.25;;;;;;;11.51;100.00;97345.31;5063632;28;20043;-71
2022/05/08 06:10:36;;;;;;;23.40;12.55;;;;;;;11.58;100.00;97345.19;5073616;28;20045;-71
2022/05/08 06:13:02;;;;;;;20.23;11.07;;;;;;;11.62;100.00;97341.00;4365069;28;10000653;-73
2022/05/08 06:15:27;;;;;;;24.10;12.10;;;;;;;11.65;100.00;97349.41;5066303;28;20143;-72
2022/05/08 06:17:53;;;;;;;23.50;13.70;;;;;;;11.66;100.00;97348.34;5064995;28;20112;-72
2022/05/08 06:20:19;;;;;;;20.08;11.32;;;;;;;11.78;100.00;97353.72;5064536;28;20048;-72
2022/05/08 06:22:45;;;;;;;19.48;12.10;;;;;;;11.88;100.00;97356.66;5062908;28;20031;-73
2022/05/08 06:25:10;;;;;;;21.08;11.60;;;;;;;12.04;100.00;97357.78;5063336;28;20039;-72
2022/05/08 06:27:36;;;;;;;17.63;11.18;;;;;;;12.14;100.00;97355.34;5065436;28;20080;-73
2022/05/08 06:30:02;;;;;;;18.27;11.73;;;;;;;12.25;100.00;97357.16;5066246;28;20188;-71
2022/05/08 06:32:27;;;;;;;20.90;11.45;;;;;;;12.30;100.00;97359.16;5063727;28;20187;-71
2022/05/08 06:34:53;;;;;;;19.10;11.75;;;;;;;12.36;100.00;97354.69;5064249;28;20457;-72
2022/05/08 06:37:18;;;;;;;23.50;12.55;;;;;;;12.35;100.00;97351.19;5064817;28;20115;-72
2022/05/08 06:39:44;;;;;;;19.40;10.73;;;;;;;12.39;100.00;97346.19;5066301;28;20040;-71
2022/05/08 06:42:09;;;;;;;24.70;12.52;;;;;;;12.42;100.00;97351.88;5064821;28;20505;-72
2022/05/08 06:44:44;;;;;;;20.67;11.82;;;;;;;12.55;100.00;97351.59;5070710;28;20086;-71
2022/05/08 06:47:10;;;;;;;19.25;12.57;;;;;;;12.68;100.00;97344.28;5063525;28;20044;-72
2022/05/08 06:49:35;;;;;;;23.80;11.60;;;;;;;12.75;100.00;97351.16;5064444;28;20036;-71
2022/05/08 06:52:01;;;;;;;21.95;11.93;;;;;;;12.78;100.00;97355.25;5065299;28;20045;-73
2022/05/08 06:54:26;;;;;;;21.90;11.35;;;;;;;12.85;100.00;97361.28;5062012;28;20474;-72
2022/05/08 06:56:53;;;;;;;20.67;11.00;;;;;;;12.89;100.00;97346.31;5062161;28;20047;-73
2022/05/08 07:02:04;;;;;;;21.30;12.65;;;;;;;13.17;100.00;97358.91;5063788;28;20048;-72
2022/05/08 07:04:29;;;;;;;22.35;11.98;;;;;;;13.28;100.00;97359.91;5065410;28;20532;-72
2022/05/08 07:06:55;;;;;;;19.30;11.32;;;;;;;13.16;100.00;97353.78;5064200;28;20193;-71
2022/05/08 07:09:21;;;;;;;18.25;10.60;;;;;;;13.30;100.00;97363.97;5064116;28;20064;-71
2022/05/08 07:11:47;;;;;;;17.52;10.77;;;;;;;13.28;100.00;97362.59;5073527;28;20075;-71
2022/05/08 07:14:14;;;;;;;19.55;10.77;;;;;;;13.33;100.00;97351.94;5064541;28;20040;-72
2022/05/08 07:16:39;;;;;;;19.33;11.68;;;;;;;13.50;100.00;97358.13;5062726;28;20601;-71
2022/05/08 07:19:05;;;;;;;17.55;10.38;;;;;;;13.59;100.00;97359.31;5066131;28;20044;-71
2022/05/08 07:21:30;;;;;;;24.35;10.43;;;;;;;13.41;100.00;97361.47;5067283;28;20043;-73
2022/05/08 07:23:56;;;;;;;25.80;11.00;;;;;;;13.51;100.00;97359.75;5066867;28;20542;-71
2022/05/08 07:26:22;;;;;;;21.98;11.55;;;;;;;13.62;100.00;97366.09;5068151;28;20778;-73
2022/05/08 07:28:47;;;;;;;16.90;10.32;;;;;;;13.81;100.00;97363.97;5066979;28;20077;-72
2022/05/08 07:31:13;;;;;;;22.73;10.73;;;;;;;13.97;100.00;97368.50;5068262;28;20736;-71
2022/05/08 07:33:39;;;;;;;18.33;10.35;;;;;;;14.13;100.00;97370.31;5068413;28;20040;-71
2022/05/08 07:36:15;;;;;;;20.88;10.73;;;;;;;14.18;100.00;97364.22;5066632;28;20525;-72
2022/05/08 07:38:45;;;;;;;21.20;11.10;;;;;;;14.22;100.00;97368.81;5066572;28;20028;-72
2022/05/08 07:41:12;;;;;;;17.55;9.75;;;;;;;14.34;100.00;97370.59;5066582;28;20190;-73
2022/05/08 07:43:38;;;;;;;20.92;10.40;;;;;;;14.36;100.00;97366.59;5068283;28;20044;-73
2022/05/08 07:46:05;;;;;;;19.70;9.85;;;;;;;14.38;100.00;97366.34;5066900;28;20120;-73
2022/05/08 07:48:31;;;;;;;25.48;10.60;;;;;;;14.34;100.00;97370.59;5066183;28;20462;-72
2022/05/08 07:50:59;;;;;;;20.45;10.70;;;;;;;14.52;100.00;97381.09;5064550;28;20105;-73
2022/05/08 07:53:26;;;;;;;16.60;9.80;;;;;;;14.65;100.00;97374.50;5066128;28;20057;-73
2022/05/08 07:55:54;;;;;;;18.58;10.43;;;;;;;14.79;100.00;97373.06;5063822;28;20060;-72
2022/05/08 07:58:21;;;;;;;17.75;10.35;;;;;;;14.99;100.00;97373.25;5065649;28;20052;-72
2022/05/08 08:00:49;;;;;;;19.38;9.63;;;;;;;15.19;100.00;97380.72;5066523;28;20644;-72
2022/05/08 08:03:16;;;;;;;17.27;9.98;;;;;;;15.47;100.00;97376.09;5066917;28;20407;-71
2022/05/08 08:05:43;;;;;;;16.70;9.05;;;;;;;15.55;100.00;97378.31;5068655;28;20028;-71
2022/05/08 08:08:09;;;;;;;18.45;9.85;;;;;;;15.60;100.00;97389.16;5065926;28;20240;-73
2022/05/08 08:10:34;;;;;;;20.60;10.05;;;;;;;15.96;100.00;97386.78;5071565;28;20044;-72
2022/05/08 08:13:00;;;;;;;19.65;9.85;;;;;;;16.07;100.00;97385.75;5065908;28;20119;-72
2022/05/08 08:15:26;;;;;;;16.85;10.20;;;;;;;16.03;100.00;97392.72;5065175;28;20040;-72
2022/05/08 08:17:51;;;;;;;14.80;9.30;;;;;;;16.21;100.00;97386.91;5068119;28;20115;-73
2022/05/08 08:20:16;;;;;;;19.05;10.05;;;;;;;16.45;100.00;97395.41;5067659;28;20036;-72
2022/05/08 08:22:42;;;;;;;22.65;10.25;;;;;;;16.30;100.00;97398.84;5069072;28;20040;-72
2022/05/08 08:25:08;;;;;;;16.08;9.95;;;;;;;16.39;100.00;97401.84;5067080;28;20032;-71
2022/05/08 08:27:34;;;;;;;19.85;9.98;;;;;;;16.53;100.00;97399.50;5069476;28;20570;-72
2022/05/08 08:30:01;;;;;;;16.73;10.70;;;;;;;16.67;100.00;97397.94;5067561;28;20043;-72
2022/05/08 08:32:27;;;;;;;20.95;10.30;;;;;;;16.55;100.00;97403.53;5069589;28;20916;-72
2022/05/08 08:34:55;;;;;;;19.83;10.20;;;;;;;16.19;100.00;97394.47;5066700;28;20070;-71
2022/05/08 08:37:21;;;;;;;17.85;9.77;;;;;;;16.42;100.00;97404.84;5067633;28;20039;-71
2022/05/08 08:39:46;;;;;;;17.30;9.95;;;;;;;16.81;100.00;97399.09;5069080;28;20060;-71
2022/05/08 08:42:31;;;;;;;17.80;10.70;;;;;;;17.13;100.00;97393.50;5069514;28;20601;-71
2022/05/08 08:48:09;;;;;;;18.25;9.73;;;;;;;16.67;100.00;97398.75;5066610;28;20569;-71
2022/05/08 08:50:35;;;;;;;14.88;9.35;;;;;;;16.69;100.00;97396.63;5067651;28;20127;-71
2022/05/08 08:53:05;;;;;;;16.40;9.50;;;;;;;16.97;100.00;97399.97;5066235;28;20044;-74
2022/05/08 08:55:31;;;;;;;18.05;9.23;;;;;;;17.30;100.00;97392.44;5065216;28;20101;-73
2022/05/08 08:57:57;;;;;;;15.20;9.43;;;;;;;17.62;100.00;97389.47;5066895;28;20044;-71
2022/05/08 09:00:23;;;;;;;15.65;8.52;;;;;;;17.82;100.00;97389.53;5066317;28;20043;-72
2022/05/08 09:02:53;;;;;;;17.17;8.70;;;;;;;17.89;100.00;97390.03;5068687;28;20122;-72
2022/05/08 09:05:19;;;;;;;16.10;8.63;;;;;;;18.06;100.00;97387.84;5066605;28;20375;-72
2022/05/08 09:07:47;;;;;;;16.45;9.10;;;;;;;18.06;100.00;97377.03;5067015;28;20034;-73
2022/05/08 09:10:18;;;;;;;15.38;8.88;;;;;;;18.52;100.00;97387.72;5073962;28;20151;-72
2022/05/08 09:12:53;;;;;;;19.83;8.63;;;;;;;18.63;100.00;97394.72;5066266;28;20506;-74
2022/05/08 09:15:24;;;;;;;13.57;8.25;;;;;;;18.50;100.00;97397.19;5065703;28;20049;-73
2022/05/08 09:17:57;;;;;;;14.60;7.60;;;;;;;18.57;100.00;97400.44;5065745;28;20047;-71
2022/05/08 09:20:43;;;;;;;16.58;9.68;;;;;;;18.82;100.00;97386.78;5070477;28;20048;-72
2022/05/08 09:23:14;;;;;;;14.85;8.82;;;;;;;18.45;100.00;97391.81;5065952;28;20391;-73
2022/05/08 09:25:45;;;;;;;20.05;8.65;;;;;;;18.84;100.00;97379.22;5066982;28;20144;-71
2022/05/08 09:28:17;;;;;;;13.45;7.85;;;;;;;19.11;100.00;97383.38;5066151;28;20385;-72
2022/05/08 09:31:03;;;;;;;12.23;8.02;;;;;;;19.17;100.00;97377.66;5068239;28;20045;-72
2022/05/08 09:33:39;;;;;;;15.95;7.70;;;;;;;19.52;99.43;97383.09;5065986;28;20067;-72
2022/05/08 09:36:18;;;;;;;14.20;7.40;;;;;;;19.51;100.00;97378.78;5056775;28;20086;-72
2022/05/08 09:38:51;;;;;;;16.20;6.93;;;;;;;19.42;99.56;97384.00;5073280;28;20097;-74
2022/05/08 09:41:19;;;;;;;11.73;7.15;;;;;;;19.60;98.26;97379.81;5073440;28;20051;-72
2022/05/08 09:43:45;;;;;;;13.60;7.68;;;;;;;20.02;100.00;97376.47;5065965;28;20489;-74
2022/05/08 09:46:11;;;;;;;15.60;8.00;;;;;;;20.53;95.83;97381.34;5066392;28;20040;-72
2022/05/08 09:48:37;;;;;;;11.25;7.95;;;;;;;20.66;93.12;97374.41;5066305;28;20128;-73
2022/05/08 09:51:08;;;;;;;15.70;7.60;;;;;;;20.31;91.48;97374.53;5066569;28;20036;-71
2022/05/08 09:53:36;;;;;;;;;;;;;;;20.92;93.29;97378.41;5068338;28;20283;-71
2022/05/08 09:56:07;;;;;;;11.85;6.50;;;;;;;21.13;88.83;97374.31;5066438;28;19945;-73
2022/05/08 09:58:33;;;;;;;13.65;7.03;;;;;;;21.34;88.26;97374.88;5064449;28;20107;-72
2022/05/08 10:00:59;;;;;;;14.27;7.82;;;;;;;21.15;90.08;97371.28;5069873;28;20052;-72
2022/05/08 10:03:26;;;;;;;17.90;7.82;;;;;;;21.25;89.28;97371.16;5067699;28;20117;-74
2022/05/08 10:05:53;;;;;;;15.95;7.15;;;;;;;21.09;86.82;97372.50;5067975;28;20078;-72
2022/05/08 10:08:24;;;;;;;12.20;6.10;;;;;;;20.66;91.71;97380.66;5062429;28;20465;-72
2022/05/08 10:14:00;;;;;;;14.27;7.60;;;;;;;19.84;94.24;97383.41;5067594;28;20044;-72
2022/05/08 10:16:55;;;;;;;13.32;7.53;;;;;;;20.81;88.25;97383.19;5065096;28;20191;-73
2022/05/08 10:19:27;;;;;;;14.07;6.90;;;;;;;21.19;88.04;97377.78;5067488;28;20048;-71
2022/05/08 10:21:56;;;;;;;15.40;7.57;;;;;;;20.98;89.50;97387.31;5068479;28;20064;-72
2022/05/08 10:25:00;;;;;;;10.27;6.47;;;;;;;20.80;91.77;97387.00;5068720;28;20059;-72
2022/05/08 10:27:30;;;;;;;13.38;6.82;;;;;;;21.22;87.55;97371.75;5062552;28;20044;-72
2022/05/08 10:29:56;;;;;;;11.23;6.43;;;;;;;21.16;86.25;97381.06;5063374;28;20109;-72
2022/05/08 10:32:28;;;;;;;13.70;6.85;;;;;;;20.98;83.36;97373.72;5067231;28;20100;-73
2022/05/08 10:35:19;;;;;;;15.98;6.95;;;;;;;21.22;80.97;97376.38;4365512;28;10000766;-73
2022/05/08 10:37:51;;;;;;;11.80;7.00;;;;;;;21.17;84.08;97369.09;5063112;28;20040;-72
2022/05/08 10:40:22;;;;;;;14.70;7.00;;;;;;;20.98;84.14;97371.81;5061050;28;20029;-74
2022/05/08 10:42:49;;;;;;;11.60;6.28;;;;;;;20.52;87.94;97369.69;5065179;28;20121;-72
2022/05/08 10:45:30;;;;;;;13.00;6.00;;;;;;;20.35;88.70;97369.31;5063313;28;20040;-71
2022/05/08 10:47:56;;;;;;;12.10;7.05;;;;;;;19.71;91.18;97368.59;5065022;28;20053;-74
2022/05/08 10:50:21;;;;;;;12.05;6.53;;;;;;;19.70;91.32;97372.41;5062610;28;20101;-72
2022/05/08 10:52:47;;;;;;;12.68;6.10;;;;;;;19.40;94.48;97364.47;5064826;28;20135;-71
2022/05/08 10:55:15;;;;;;;10.55;6.38;;;;;;;19.36;93.88;97363.41;5061708;28;20143;-72
2022/05/08 10:57:48;;;;;;;10.25;6.22;;;;;;;19.31;94.96;97363.47;5067318;28;20047;-71
2022/05/08 11:00:22;;;;;;;12.70;6.85;;;;;;;19.07;96.94;97368.78;5065865;28;20307;-72
2022/05/08 11:02:52;;;;;;;12.15;6.28;;;;;;;18.82;98.90;97367.00;5067801;28;20399;-72
2022/05/08 11:05:18;;;;;;;11.32;5.88;;;;;;;18.89;100.00;97370.22;5070203;28;20041;-71
2022/05/08 11:08:05;;;;;;;13.98;6.50;;;;;;;18.57;100.00;97370.63;5066690;28;20052;-71
2022/05/08 11:10:32;;;;;;;10.77;6.28;;;;;;;18.74;99.21;97368.41;5068165;28;20033;-72
2022/05/08 11:13:12;;;;;;;10.18;6.43;;;;;;;18.61;99.33;97371.69;5069828;28;20360;-73
2022/05/08 11:15:48;;;;;;;11.95;6.72;;;;;;;18.49;100.00;97372.00;5068741;28;20083;-72
2022/05/08 11:18:20;;;;;;;12.65;6.60;;;;;;;18.52;100.00;97378.75;5067837;28;20040;-72
2022/05/08 11:20:50;;;;;;;12.30;6.25;;;;;;;18.52;100.00;97379.59;5066344;28;20546;-72
2022/05/08 11:23:24;;;;;;;14.48;6.55;;;;;;;18.20;100.00;97371.81;5067330;28;20059;-73
2022/05/08 11:26:04;;;;;;;12.23;6.93;;;;;;;18.25;100.00;97366.41;5067541;28;20051;-73
2022/05/08 11:28:30;;;;;;;14.10;6.90;;;;;;;18.26;100.00;97372.63;5067657;28;20036;-72
2022/05/08 11:30:58;;;;;;;10.13;5.90;;;;;;;18.41;100.00;97372.59;5065924;28;20075;-71
2022/05/08 11:36:44;;;;;;;13.75;5.60;;;;;;;18.63;100.00;97369.50;5065180;28;20555;-73
2022/05/08 11:39:13;;;;;;;10.77;6.63;;;;;;;17.94;100.00;97373.78;5063687;28;20459;-71
2022/05/08 11:41:42;;;;;;;10.50;6.95;;;;;;;17.71;100.00;97363.53;5069561;28;20032;-72
2022/05/08 11:44:13;;;;;;;14.15;6.68;;;;;;;17.76;100.00;97372.47;5068091;28;20044;-72